Time;durP1;ratioP1;P1;durP2;ratioP2;P2;SDS_P1;SDS_P2;PMS_P1;PMS_P2;Temp;Humidity;BMP_temperature;BMP_pressure;BME280_temperature;BME280_humidity;BME280_pressure;Samples;Min_cycle;Max_cycle;Signal;HPM_P1;HPM_P2
2023/08/15 00:00:20;;;;;;;0.52;0.40;;;;;;;;;;5018729;28;20525;-84
2023/08/15 00:02:48;;;;;;;0.77;0.70;;;;;;;;;;5022605;28;20045;-83
2023/08/15 00:05:14;;;;;;;1.60;1.25;;;;;;;;;;5023581;28;20110;-83
2023/08/15 00:07:43;;;;;;;0.88;0.77;;;;;;;;;;5015891;28;20052;-84
2023/08/15 00:10:38;;;;;;;2.20;0.28;;;;;;;;;;5000200;28;20052;-84
2023/08/15 00:13:07;;;;;;;1.85;0.95;;;;;;;;;;5001881;28;20498;-83
2023/08/15 00:15:34;;;;;;;0.40;0.38;;;;;;;;;;5012532;28;20099;-84
2023/08/15 00:18:03;;;;;;;0.55;0.55;;;;;;;;;;5003757;28;20415;-84
2023/08/15 00:20:30;;;;;;;0.28;0.28;;;;;;;;;;5006894;28;20047;-83
2023/08/15 00:22:58;;;;;;;0.22;0.20;;;;;;;;;;5015942;28;20123;-84
2023/08/15 00:25:28;;;;;;;0.20;0.20;;;;;;;;;;4995817;28;20088;-84
2023/08/15 00:27:59;;;;;;;0.20;0.20;;;;;;;;;;5020425;28;20033;-84
2023/08/15 00:30:26;;;;;;;0.20;0.10;;;;;;;;;;5022837;28;20482;-84
2023/08/15 00:32:57;;;;;;;0.20;0.10;;;;;;;;;;4995715;28;20033;-84
2023/08/15 00:35:29;;;;;;;0.20;0.10;;;;;;;;;;5017055;28;20583;-84
2023/08/15 00:37:55;;;;;;;0.20;0.20;;;;;;;;;;5002896;28;20162;-84
2023/08/15 00:40:31;;;;;;;0.30;0.15;;;;;;;;;;5018822;28;20045;-84
2023/08/15 00:43:04;;;;;;;0.45;0.40;;;;;;;;;;5018714;28;20494;-84
2023/08/15 00:45:30;;;;;;;0.20;0.13;;;;;;;;;;5016073;28;20052;-83
2023/08/15 00:47:56;;;;;;;0.20;0.13;;;;;;;;;;5007785;28;20053;-84
2023/08/15 00:50:31;;;;;;;0.25;0.10;;;;;;;;;;5001461;28;20045;-83
2023/08/15 00:53:02;;;;;;;0.20;0.10;;;;;;;;;;5020485;28;20084;-83
2023/08/15 00:55:30;;;;;;;0.20;0.20;;;;;;;;;;5017527;28;20521;-84
2023/08/15 00:57:56;;;;;;;0.20;0.10;;;;;;;;;;5021818;28;20041;-84
2023/08/15 01:00:23;;;;;;;0.30;0.17;;;;;;;;;;4997150;28;20536;-83
2023/08/15 01:02:49;;;;;;;0.20;0.10;;;;;;;;;;5021006;28;20115;-84
2023/08/15 01:05:18;;;;;;;0.30;0.20;;;;;;;;;;5005930;28;20043;-83
2023/08/15 01:07:45;;;;;;;0.20;0.10;;;;;;;;;;5020160;28;20041;-83
2023/08/15 01:10:11;;;;;;;0.20;0.10;;;;;;;;;;5014455;28;20076;-84
2023/08/15 01:12:51;;;;;;;0.30;0.20;;;;;;;;;;5012975;28;20030;-84
2023/08/15 01:15:21;;;;;;;0.20;0.10;;;;;;;;;;5002769;28;21125;-85
2023/08/15 01:17:56;;;;;;;0.20;0.10;;;;;;;;;;5004053;28;20497;-84
2023/08/15 01:20:24;;;;;;;0.20;0.10;;;;;;;;;;4959449;28;1192787;-84
2023/08/15 01:22:52;;;;;;;0.20;0.10;;;;;;;;;;5024243;28;20639;-85
2023/08/15 01:25:18;;;;;;;0.30;0.10;;;;;;;;;;5024052;28;20040;-84
2023/08/15 01:27:44;;;;;;;0.40;0.20;;;;;;;;;;5022089;28;20048;-84
2023/08/15 01:30:12;;;;;;;0.20;0.10;;;;;;;;;;5024309;28;20394;-84
2023/08/15 01:32:57;;;;;;;0.50;0.30;;;;;;;;;;5021141;28;20119;-84
2023/08/15 01:35:28;;;;;;;0.47;0.20;;;;;;;;;;5013974;28;20402;-84
2023/08/15 01:37:57;;;;;;;0.40;0.30;;;;;;;;;;5002764;28;20033;-85
2023/08/15 01:40:35;;;;;;;0.20;0.20;;;;;;;;;;5007786;28;20083;-85
2023/08/15 01:43:02;;;;;;;0.43;0.30;;;;;;;;;;5002762;28;20040;-86
2023/08/15 01:45:28;;;;;;;0.20;0.10;;;;;;;;;;5025909;28;20041;-85
2023/08/15 01:48:00;;;;;;;0.20;0.10;;;;;;;;;;5019330;28;20053;-86
2023/08/15 01:50:27;;;;;;;0.20;0.10;;;;;;;;;;5005398;28;20042;-85
2023/08/15 01:52:55;;;;;;;0.20;0.10;;;;;;;;;;5024483;28;20047;-85
2023/08/15 01:55:22;;;;;;;0.20;0.10;;;;;;;;;;5024787;28;20032;-84
2023/08/15 01:57:48;;;;;;;0.20;0.17;;;;;;;;;;5016206;28;20036;-83
2023/08/15 02:00:14;;;;;;;0.20;0.20;;;;;;;;;;5005101;28;20409;-84
2023/08/15 02:02:45;;;;;;;0.35;0.10;;;;;;;;;;5020345;28;20079;-85
2023/08/15 02:05:18;;;;;;;0.40;0.22;;;;;;;;;;5005384;28;20054;-84
2023/08/15 02:07:46;;;;;;;0.30;0.20;;;;;;;;;;5019667;28;20044;-84
2023/08/15 02:10:12;;;;;;;0.38;0.15;;;;;;;;;;5021523;28;20051;-83
2023/08/15 02:12:38;;;;;;;2.38;0.68;;;;;;;;;;5004367;28;20060;-84
2023/08/15 02:15:04;;;;;;;1.48;0.50;;;;;;;;;;5002217;28;20095;-84
2023/08/15 02:17:30;;;;;;;0.20;0.10;;;;;;;;;;5020272;28;20041;-84
2023/08/15 02:19:56;;;;;;;0.22;0.22;;;;;;;;;;5003603;28;20485;-85
2023/08/15 02:22:25;;;;;;;0.25;0.25;;;;;;;;;;5000789;28;20025;-85
2023/08/15 02:24:51;;;;;;;0.43;0.32;;;;;;;;;;5018092;28;20048;-84
2023/08/15 02:27:24;;;;;;;0.20;0.10;;;;;;;;;;5004769;28;20509;-85
2023/08/15 02:29:51;;;;;;;0.20;0.17;;;;;;;;;;5019186;28;20558;-85
2023/08/15 02:32:27;;;;;;;;;;;;;;;;;;;;;
2023/08/15 02:35:16;;;;;;;0.30;0.30;;;;;;;;;;5040355;28;20040;-84
2023/08/15 02:37:42;;;;;;;0.30;0.20;;;;;;;;;;5022475;28;20075;-84
2023/08/15 02:40:09;;;;;;;0.20;0.17;;;;;;;;;;5017228;28;20159;-85
2023/08/15 02:42:35;;;;;;;0.40;0.30;;;;;;;;;;5014749;28;20083;-84
2023/08/15 02:45:02;;;;;;;0.20;0.10;;;;;;;;;;5006167;28;20045;-85
2023/08/15 02:47:28;;;;;;;0.20;0.10;;;;;;;;;;5020838;28;20041;-84
2023/08/15 02:49:54;;;;;;;0.20;0.13;;;;;;;;;;5007903;28;20048;-85
2023/08/15 02:52:20;;;;;;;0.20;0.10;;;;;;;;;;5016745;28;20048;-85
2023/08/15 02:54:46;;;;;;;0.30;0.30;;;;;;;;;;5005835;28;20132;-85
2023/08/15 02:57:12;;;;;;;0.40;0.30;;;;;;;;;;5007487;28;20490;-85
2023/08/15 02:59:50;;;;;;;0.45;0.28;;;;;;;;;;5000926;28;20045;-84
2023/08/15 03:02:19;;;;;;;0.20;0.10;;;;;;;;;;5022027;28;20048;-85
2023/08/15 03:04:48;;;;;;;0.30;0.30;;;;;;;;;;5001196;28;20037;-85
2023/08/15 03:07:34;;;;;;;0.20;0.20;;;;;;;;;;5001247;28;20049;-85
2023/08/15 03:10:12;;;;;;;0.20;0.13;;;;;;;;;;5055885;23;20057;-84
2023/08/15 03:12:45;;;;;;;0.67;0.37;;;;;;;;;;5022356;28;20436;-85
2023/08/15 03:15:17;;;;;;;0.30;0.20;;;;;;;;;;5021738;28;20041;-85
2023/08/15 03:17:44;;;;;;;0.20;0.17;;;;;;;;;;5003200;28;20046;-84
2023/08/15 03:20:12;;;;;;;1.05;0.47;;;;;;;;;;5012945;23;20593;-81
2023/08/15 03:22:38;;;;;;;0.20;0.10;;;;;;;;;;4998555;28;20048;-81
2023/08/15 03:25:05;;;;;;;0.20;0.00;;;;;;;;;;5004235;28;20042;-79
2023/08/15 03:27:31;;;;;;;1.33;0.55;;;;;;;;;;4996586;28;20049;-80
2023/08/15 03:29:57;;;;;;;0.20;0.10;;;;;;;;;;5009446;28;20104;-80
2023/08/15 03:32:23;;;;;;;0.65;0.47;;;;;;;;;;5014287;28;20106;-79
2023/08/15 03:34:49;;;;;;;0.30;0.30;;;;;;;;;;5025800;28;20124;-80
2023/08/15 03:37:15;;;;;;;0.47;0.43;;;;;;;;;;5027372;28;20505;-79
2023/08/15 03:39:41;;;;;;;0.20;0.10;;;;;;;;;;5026511;28;20109;-79
2023/08/15 03:42:07;;;;;;;0.30;0.30;;;;;;;;;;5011320;28;20114;-77
2023/08/15 03:44:33;;;;;;;0.50;0.30;;;;;;;;;;5027229;28;20116;-78
2023/08/15 03:46:59;;;;;;;0.20;0.10;;;;;;;;;;5020554;28;20040;-78
2023/08/15 03:49:25;;;;;;;0.28;0.20;;;;;;;;;;5011453;28;20064;-79
2023/08/15 03:51:51;;;;;;;0.63;0.63;;;;;;;;;;5023518;28;20448;-79
2023/08/15 03:54:17;;;;;;;0.30;0.30;;;;;;;;;;5024900;28;20074;-79
2023/08/15 03:56:43;;;;;;;0.70;0.60;;;;;;;;;;5016233;28;20048;-77
2023/08/15 03:59:09;;;;;;;0.35;0.30;;;;;;;;;;5013872;28;20192;-78
2023/08/15 04:01:35;;;;;;;0.20;0.10;;;;;;;;;;5012116;28;20565;-78
2023/08/15 04:04:01;;;;;;;1.23;0.75;;;;;;;;;;5018588;28;20393;-77
2023/08/15 04:06:27;;;;;;;0.30;0.30;;;;;;;;;;5020999;28;20122;-78
2023/08/15 04:08:53;;;;;;;0.20;0.17;;;;;;;;;;5026127;28;20476;-77
2023/08/15 04:11:19;;;;;;;0.25;0.25;;;;;;;;;;5040608;28;20110;-77
2023/08/15 04:13:45;;;;;;;0.35;0.20;;;;;;;;;;5031932;28;20412;-79
2023/08/15 04:16:11;;;;;;;0.20;0.13;;;;;;;;;;5031111;28;20045;-77
2023/08/15 04:18:37;;;;;;;0.30;0.28;;;;;;;;;;5026459;28;20044;-78
2023/08/15 04:21:03;;;;;;;0.28;0.15;;;;;;;;;;5015463;28;20333;-79
2023/08/15 04:23:29;;;;;;;0.20;0.17;;;;;;;;;;5010968;28;20059;-79
2023/08/15 04:25:55;;;;;;;4.60;0.60;;;;;;;;;;5008844;28;20065;-79
2023/08/15 04:28:21;;;;;;;0.40;0.30;;;;;;;;;;5024181;28;20045;-79
2023/08/15 04:30:47;;;;;;;0.52;0.50;;;;;;;;;;5024355;28;20625;-79
2023/08/15 04:33:14;;;;;;;0.20;0.20;;;;;;;;;;5015129;28;20037;-79
2023/08/15 04:35:40;;;;;;;0.50;0.50;;;;;;;;;;5017889;28;20622;-79
2023/08/15 04:38:06;;;;;;;0.20;0.10;;;;;;;;;;5013607;28;20037;-82
2023/08/15 04:40:34;;;;;;;0.35;0.20;;;;;;;;;;4996670;28;20041;-80
2023/08/15 04:43:00;;;;;;;0.40;0.28;;;;;;;;;;5001014;28;20064;-83
2023/08/15 04:45:26;;;;;;;0.20;0.10;;;;;;;;;;5020431;28;20055;-81
2023/08/15 04:47:52;;;;;;;0.30;0.20;;;;;;;;;;5025151;28;21819;-81
2023/08/15 04:50:18;;;;;;;0.20;0.20;;;;;;;;;;5015167;28;20045;-80
2023/08/15 04:52:45;;;;;;;0.70;0.63;;;;;;;;;;5024795;28;20429;-81
2023/08/15 04:55:13;;;;;;;0.40;0.40;;;;;;;;;;5015033;28;20347;-80
2023/08/15 04:57:39;;;;;;;0.45;0.30;;;;;;;;;;5016940;28;20435;-85
2023/08/15 05:00:08;;;;;;;0.20;0.20;;;;;;;;;;5005073;28;20067;-83
2023/08/15 05:02:35;;;;;;;0.40;0.40;;;;;;;;;;5011775;28;20086;-81
2023/08/15 05:05:03;;;;;;;0.20;0.10;;;;;;;;;;5013018;28;20087;-82
2023/08/15 05:07:29;;;;;;;0.20;0.10;;;;;;;;;;5013672;28;20052;-81
2023/08/15 05:09:55;;;;;;;0.32;0.30;;;;;;;;;;5016903;28;20045;-82
2023/08/15 05:12:21;;;;;;;0.40;0.17;;;;;;;;;;5017541;28;20036;-81
2023/08/15 05:14:47;;;;;;;0.20;0.10;;;;;;;;;;5020143;28;20037;-81
2023/08/15 05:17:13;;;;;;;0.20;0.13;;;;;;;;;;5015114;28;20099;-78
2023/08/15 05:19:39;;;;;;;0.20;0.10;;;;;;;;;;5018675;28;20406;-80
2023/08/15 05:22:05;;;;;;;0.20;0.15;;;;;;;;;;5016864;28;20057;-78
2023/08/15 05:24:31;;;;;;;0.20;0.10;;;;;;;;;;5017684;28;20059;-80
2023/08/15 05:26:57;;;;;;;0.22;0.20;;;;;;;;;;5011533;28;20044;-80
2023/08/15 05:29:24;;;;;;;0.30;0.25;;;;;;;;;;5013519;28;20113;-78
2023/08/15 05:31:50;;;;;;;0.30;0.20;;;;;;;;;;5016635;28;20131;-79
2023/08/15 05:34:16;;;;;;;0.20;0.10;;;;;;;;;;5014999;28;20378;-81
2023/08/15 05:36:42;;;;;;;0.32;0.30;;;;;;;;;;5017529;28;20048;-79
2023/08/15 05:39:08;;;;;;;0.20;0.15;;;;;;;;;;5015386;28;20040;-82
2023/08/15 05:41:34;;;;;;;2.55;0.28;;;;;;;;;;5002326;28;20060;-79
2023/08/15 05:44:00;;;;;;;0.20;0.10;;;;;;;;;;5014760;28;20105;-79
2023/08/15 05:46:26;;;;;;;0.20;0.10;;;;;;;;;;5001229;28;20052;-80
2023/08/15 05:48:52;;;;;;;0.30;0.25;;;;;;;;;;5013818;28;20545;-80
2023/08/15 05:51:18;;;;;;;0.20;0.10;;;;;;;;;;5005783;28;20041;-81
2023/08/15 05:53:44;;;;;;;0.57;0.20;;;;;;;;;;5016159;28;20060;-78
2023/08/15 05:56:10;;;;;;;0.20;0.20;;;;;;;;;;5024028;28;20517;-80
2023/08/15 05:58:36;;;;;;;0.20;0.03;;;;;;;;;;5022066;28;20524;-81
2023/08/15 06:01:02;;;;;;;0.30;0.20;;;;;;;;;;5015827;28;20496;-79
2023/08/15 06:03:28;;;;;;;0.20;0.20;;;;;;;;;;5018246;28;20041;-81
2023/08/15 06:05:58;;;;;;;0.20;0.20;;;;;;;;;;5010065;28;20395;-80
2023/08/15 06:08:24;;;;;;;0.20;0.20;;;;;;;;;;5026169;28;20124;-78
2023/08/15 06:10:50;;;;;;;0.30;0.25;;;;;;;;;;5023814;28;20053;-81
2023/08/15 06:13:16;;;;;;;0.20;0.20;;;;;;;;;;5010095;28;20041;-79
2023/08/15 06:15:42;;;;;;;1.00;0.35;;;;;;;;;;5022058;28;20045;-76
2023/08/15 06:18:08;;;;;;;0.50;0.20;;;;;;;;;;5028390;28;20594;-81
2023/08/15 06:20:34;;;;;;;0.30;0.30;;;;;;;;;;5013493;28;20123;-81
2023/08/15 06:23:00;;;;;;;0.20;0.10;;;;;;;;;;5026240;28;20357;-80
2023/08/15 06:25:27;;;;;;;0.47;0.35;;;;;;;;;;5020803;28;20611;-81
2023/08/15 06:27:53;;;;;;;0.20;0.20;;;;;;;;;;5008793;28;20596;-81
2023/08/15 06:30:19;;;;;;;0.20;0.10;;;;;;;;;;5022907;28;20068;-81
2023/08/15 06:32:45;;;;;;;0.20;0.10;;;;;;;;;;5027884;28;20033;-81
2023/08/15 06:35:11;;;;;;;0.32;0.20;;;;;;;;;;5013663;28;20471;-81
2023/08/15 06:37:37;;;;;;;0.20;0.10;;;;;;;;;;5004913;28;20440;-81
2023/08/15 06:40:03;;;;;;;0.20;0.20;;;;;;;;;;5014476;28;20049;-81
2023/08/15 06:42:30;;;;;;;0.20;0.10;;;;;;;;;;5006815;28;20507;-80
2023/08/15 06:45:06;;;;;;;0.20;0.10;;;;;;;;;;5008763;28;20087;-81
2023/08/15 06:47:32;;;;;;;0.20;0.00;;;;;;;;;;5011490;28;20045;-81
2023/08/15 06:49:58;;;;;;;0.20;0.10;;;;;;;;;;5006920;28;20045;-82
2023/08/15 06:52:24;;;;;;;0.30;0.10;;;;;;;;;;5002162;28;20064;-82
2023/08/15 06:54:50;;;;;;;0.20;0.10;;;;;;;;;;5009109;28;20037;-83
2023/08/15 06:57:16;;;;;;;0.85;0.20;;;;;;;;;;5019495;28;20092;-80
2023/08/15 06:59:42;;;;;;;0.30;0.13;;;;;;;;;;5009504;28;20041;-82
2023/08/15 07:02:08;;;;;;;0.20;0.10;;;;;;;;;;5032111;28;20036;-82
2023/08/15 07:04:38;;;;;;;0.20;0.10;;;;;;;;;;5031421;28;20048;-81
2023/08/15 07:07:04;;;;;;;0.30;0.20;;;;;;;;;;5023869;28;20123;-82
2023/08/15 07:09:32;;;;;;;0.28;0.17;;;;;;;;;;5024489;28;20037;-81
2023/08/15 07:11:58;;;;;;;0.20;0.10;;;;;;;;;;5011314;28;20055;-82
2023/08/15 07:14:24;;;;;;;0.30;0.10;;;;;;;;;;5008250;28;20064;-80
2023/08/15 07:16:51;;;;;;;0.40;0.17;;;;;;;;;;5031037;28;20099;-82
2023/08/15 07:19:17;;;;;;;0.20;0.10;;;;;;;;;;5025843;28;20269;-82
2023/08/15 07:21:44;;;;;;;0.20;0.10;;;;;;;;;;5026473;28;20033;-83
2023/08/15 07:24:10;;;;;;;0.20;0.00;;;;;;;;;;5028217;28;20068;-82
2023/08/15 07:26:36;;;;;;;0.20;0.10;;;;;;;;;;5025510;28;20048;-82
2023/08/15 07:29:02;;;;;;;0.20;0.00;;;;;;;;;;5018744;28;20041;-82
2023/08/15 07:31:28;;;;;;;0.20;0.17;;;;;;;;;;5020065;28;20052;-81
2023/08/15 07:33:54;;;;;;;0.20;0.00;;;;;;;;;;5028800;28;20180;-84
2023/08/15 07:36:21;;;;;;;0.20;0.00;;;;;;;;;;5027375;28;20041;-81
2023/08/15 07:38:47;;;;;;;0.20;0.10;;;;;;;;;;5024344;28;20033;-81
2023/08/15 07:41:13;;;;;;;0.20;0.10;;;;;;;;;;5014772;28;20039;-84
2023/08/15 07:43:39;;;;;;;0.20;0.10;;;;;;;;;;5023742;28;20041;-81
2023/08/15 07:46:05;;;;;;;0.20;0.10;;;;;;;;;;5015268;28;20047;-84
2023/08/15 07:48:31;;;;;;;0.20;0.10;;;;;;;;;;5023470;28;20104;-83
2023/08/15 07:50:57;;;;;;;0.20;0.10;;;;;;;;;;5020534;28;20136;-82
2023/08/15 07:53:23;;;;;;;0.20;0.10;;;;;;;;;;5022755;28;20481;-83
2023/08/15 07:55:51;;;;;;;0.20;0.10;;;;;;;;;;5019195;28;20046;-81
2023/08/15 07:58:17;;;;;;;0.20;0.10;;;;;;;;;;5023278;28;20041;-83
2023/08/15 08:00:43;;;;;;;0.20;0.00;;;;;;;;;;5019821;28;20045;-82
2023/08/15 08:03:09;;;;;;;0.20;0.10;;;;;;;;;;5013809;28;20047;-84
2023/08/15 08:05:36;;;;;;;0.20;0.00;;;;;;;;;;5032619;28;20063;-82
2023/08/15 08:08:02;;;;;;;0.20;0.10;;;;;;;;;;5016762;28;20041;-84
2023/08/15 08:10:28;;;;;;;0.20;0.08;;;;;;;;;;5029886;28;20139;-81
2023/08/15 08:12:54;;;;;;;0.20;0.08;;;;;;;;;;5028514;28;20415;-83
2023/08/15 08:15:23;;;;;;;0.20;0.10;;;;;;;;;;5023948;28;20684;-84
2023/08/15 08:17:49;;;;;;;0.20;0.10;;;;;;;;;;5023136;28;20080;-83
2023/08/15 08:20:18;;;;;;;0.20;0.20;;;;;;;;;;5018752;28;20570;-83
2023/08/15 08:22:44;;;;;;;0.20;0.10;;;;;;;;;;5020371;28;20052;-83
2023/08/15 08:25:11;;;;;;;0.20;0.00;;;;;;;;;;5005932;28;20045;-83
2023/08/15 08:27:37;;;;;;;0.80;0.80;;;;;;;;;;5008070;28;20465;-84
2023/08/15 08:30:08;;;;;;;0.20;0.10;;;;;;;;;;5021599;28;20041;-84
2023/08/15 08:32:35;;;;;;;0.20;0.10;;;;;;;;;;5022066;28;20037;-82
2023/08/15 08:35:01;;;;;;;0.20;0.10;;;;;;;;;;5013730;28;20109;-85
2023/08/15 08:37:27;;;;;;;0.20;0.10;;;;;;;;;;5003179;28;20037;-82
2023/08/15 08:39:55;;;;;;;0.20;0.10;;;;;;;;;;5021280;28;20505;-83
2023/08/15 08:42:21;;;;;;;0.20;0.10;;;;;;;;;;5018068;28;20033;-83
2023/08/15 08:44:51;;;;;;;0.20;0.10;;;;;;;;;;5023090;28;20036;-85
2023/08/15 08:47:22;;;;;;;0.20;0.10;;;;;;;;;;5020171;28;20037;-83
2023/08/15 08:49:51;;;;;;;0.20;0.10;;;;;;;;;;5020614;28;20053;-85
2023/08/15 08:52:18;;;;;;;0.20;0.10;;;;;;;;;;5027787;28;20532;-83
2023/08/15 08:54:44;;;;;;;0.20;0.10;;;;;;;;;;5054903;28;20045;-84
2023/08/15 08:57:11;;;;;;;0.20;0.10;;;;;;;;;;5034153;28;20087;-82
2023/08/15 08:59:38;;;;;;;0.20;0.10;;;;;;;;;;5033660;28;20064;-82
2023/08/15 09:02:04;;;;;;;0.38;0.38;;;;;;;;;;5026095;28;20052;-84
2023/08/15 09:04:30;;;;;;;0.20;0.10;;;;;;;;;;5022727;28;20052;-84
2023/08/15 09:06:56;;;;;;;0.20;0.10;;;;;;;;;;5032991;28;20036;-84
2023/08/15 09:09:23;;;;;;;0.20;0.15;;;;;;;;;;5020627;28;20047;-84
2023/08/15 09:11:50;;;;;;;0.20;0.10;;;;;;;;;;5015069;28;20119;-85
2023/08/15 09:14:17;;;;;;;0.30;0.30;;;;;;;;;;5018012;28;20041;-82
2023/08/15 09:16:48;;;;;;;0.20;0.10;;;;;;;;;;5016213;28;20098;-83
2023/08/15 09:19:14;;;;;;;0.20;0.10;;;;;;;;;;5022799;28;20033;-83
2023/08/15 09:21:41;;;;;;;0.20;0.10;;;;;;;;;;5037194;28;20045;-83
2023/08/15 09:24:07;;;;;;;0.95;0.30;;;;;;;;;;5017777;28;20397;-82
2023/08/15 09:26:34;;;;;;;0.20;0.10;;;;;;;;;;5015806;28;20521;-82
2023/08/15 09:29:00;;;;;;;0.20;0.10;;;;;;;;;;5017933;28;20052;-83
2023/08/15 09:31:26;;;;;;;0.30;0.25;;;;;;;;;;5006665;28;20087;-83
2023/08/15 09:33:52;;;;;;;0.55;0.35;;;;;;;;;;5017311;28;20041;-83
2023/08/15 09:36:19;;;;;;;0.52;0.35;;;;;;;;;;5020270;28;20063;-84
2023/08/15 09:38:45;;;;;;;0.30;0.20;;;;;;;;;;5029788;28;20044;-84
2023/08/15 09:41:12;;;;;;;0.30;0.30;;;;;;;;;;5023889;28;20513;-84
2023/08/15 09:43:50;;;;;;;0.20;0.10;;;;;;;;;;5018781;28;20132;-83
2023/08/15 09:46:16;;;;;;;0.20;0.10;;;;;;;;;;5009520;28;20084;-81
2023/08/15 09:48:43;;;;;;;0.55;0.43;;;;;;;;;;5020528;28;20041;-83
2023/08/15 09:51:13;;;;;;;0.50;0.50;;;;;;;;;;5018921;28;20512;-85
2023/08/15 09:53:39;;;;;;;0.20;0.20;;;;;;;;;;5035586;28;20036;-82
2023/08/15 09:56:05;;;;;;;0.20;0.15;;;;;;;;;;5022201;28;20543;-85
2023/08/15 09:58:40;;;;;;;0.20;0.15;;;;;;;;;;5018025;28;20041;-84
2023/08/15 10:01:27;;;;;;;1.15;0.70;;;;;;;;;;5006182;28;20043;-83
2023/08/15 10:04:12;;;;;;;;;;;;;;;;;;;;;
2023/08/15 10:06:46;;;;;;;0.20;0.17;;;;;;;;;;5020825;28;20281;-84
2023/08/15 10:09:16;;;;;;;0.20;0.20;;;;;;;;;;5020973;28;20051;-82
2023/08/15 10:11:44;;;;;;;0.43;0.10;;;;;;;;;;5005589;28;20493;-83
2023/08/15 10:14:21;;;;;;;0.30;0.30;;;;;;;;;;5035216;28;20037;-84
2023/08/15 10:16:56;;;;;;;0.47;0.30;;;;;;;;;;5018493;28;20048;-84
2023/08/15 10:19:37;;;;;;;0.22;0.17;;;;;;;;;;5005374;28;20037;-86
2023/08/15 10:22:03;;;;;;;0.40;0.40;;;;;;;;;;5003607;28;20044;-84
2023/08/15 10:24:34;;;;;;;0.20;0.10;;;;;;;;;;5036162;28;20044;-84
2023/08/15 10:27:06;;;;;;;0.38;0.35;;;;;;;;;;5021700;28;20506;-84
2023/08/15 10:29:34;;;;;;;0.20;0.13;;;;;;;;;;5017808;28;20049;-85
2023/08/15 10:32:00;;;;;;;0.20;0.17;;;;;;;;;;5015521;28;20041;-86
2023/08/15 10:34:32;;;;;;;0.20;0.10;;;;;;;;;;5020976;28;20506;-85
2023/08/15 10:37:28;;;;;;;0.20;0.15;;;;;;;;;;5019032;28;20041;-85
2023/08/15 10:40:08;;;;;;;0.20;0.10;;;;;;;;;;5006738;28;20086;-84
2023/08/15 10:42:53;;;;;;;0.30;0.22;;;;;;;;;;5007252;28;20040;-83
2023/08/15 10:45:20;;;;;;;0.50;0.30;;;;;;;;;;5045146;28;20149;-86
2023/08/15 10:47:46;;;;;;;0.20;0.10;;;;;;;;;;5024919;28;20044;-86
2023/08/15 10:50:24;;;;;;;0.20;0.20;;;;;;;;;;5024764;28;20098;-85
2023/08/15 10:53:09;;;;;;;0.20;0.10;;;;;;;;;;5033103;28;20038;-84
2023/08/15 10:55:36;;;;;;;0.20;0.10;;;;;;;;;;5034414;28;20051;-86
2023/08/15 10:58:13;;;;;;;0.20;0.10;;;;;;;;;;5029372;28;20555;-83
2023/08/15 11:00:49;;;;;;;0.20;0.10;;;;;;;;;;5023824;28;20486;-86
2023/08/15 11:03:27;;;;;;;0.30;0.20;;;;;;;;;;5012406;28;20120;-85
2023/08/15 11:06:08;;;;;;;0.20;0.20;;;;;;;;;;5011803;28;20388;-85
2023/08/15 11:08:34;;;;;;;0.20;0.10;;;;;;;;;;5024581;28;20129;-86
2023/08/15 11:11:05;;;;;;;0.20;0.10;;;;;;;;;;5027745;28;20446;-86
2023/08/15 11:13:36;;;;;;;1.88;0.85;;;;;;;;;;5012611;28;20041;-83
2023/08/15 11:16:02;;;;;;;0.20;0.10;;;;;;;;;;5039793;28;20119;-82
2023/08/15 11:18:28;;;;;;;0.30;0.30;;;;;;;;;;5026997;28;20115;-84
2023/08/15 11:20:54;;;;;;;0.20;0.10;;;;;;;;;;5024201;28;20041;-81
2023/08/15 11:23:22;;;;;;;0.30;0.30;;;;;;;;;;5022548;28;20131;-84
2023/08/15 11:25:48;;;;;;;0.40;0.25;;;;;;;;;;5010173;28;20043;-83
2023/08/15 11:28:14;;;;;;;0.20;0.10;;;;;;;;;;5021976;28;20087;-84
2023/08/15 11:30:41;;;;;;;0.30;0.25;;;;;;;;;;5027891;28;20052;-86
2023/08/15 11:33:13;;;;;;;0.63;0.28;;;;;;;;;;5009034;28;20045;-83
2023/08/15 11:35:39;;;;;;;0.20;0.10;;;;;;;;;;5023776;28;20567;-83
2023/08/15 11:38:10;;;;;;;0.20;0.10;;;;;;;;;;5028076;28;20037;-83
2023/08/15 11:40:36;;;;;;;0.20;0.10;;;;;;;;;;5026580;28;20572;-84
2023/08/15 11:43:02;;;;;;;0.30;0.28;;;;;;;;;;5025777;28;20284;-85
2023/08/15 11:45:31;;;;;;;0.20;0.10;;;;;;;;;;5021058;28;20052;-83
2023/08/15 11:48:01;;;;;;;0.30;0.10;;;;;;;;;;5028744;28;20041;-82
2023/08/15 11:50:28;;;;;;;0.20;0.20;;;;;;;;;;5027103;28;20047;-84
2023/08/15 11:52:55;;;;;;;0.20;0.10;;;;;;;;;;5020231;28;20044;-85
2023/08/15 11:55:21;;;;;;;0.20;0.10;;;;;;;;;;5026001;28;20886;-83
2023/08/15 11:57:48;;;;;;;0.20;0.20;;;;;;;;;;5021021;28;20116;-82
2023/08/15 12:00:18;;;;;;;0.25;0.10;;;;;;;;;;5020763;28;20037;-85
2023/08/15 12:02:45;;;;;;;0.20;0.10;;;;;;;;;;5018993;28;20044;-82
2023/08/15 12:05:12;;;;;;;0.20;0.10;;;;;;;;;;5019970;28;20040;-81
2023/08/15 12:07:41;;;;;;;0.20;0.20;;;;;;;;;;5022578;28;20041;-86
2023/08/15 12:10:07;;;;;;;0.38;0.30;;;;;;;;;;5015307;28;20029;-86
2023/08/15 12:12:37;;;;;;;1.40;0.20;;;;;;;;;;5020451;28;20045;-86
2023/08/15 12:15:03;;;;;;;0.90;0.60;;;;;;;;;;5018290;28;20150;-83
2023/08/15 12:17:29;;;;;;;0.20;0.10;;;;;;;;;;5019391;28;20422;-84
2023/08/15 12:19:55;;;;;;;0.20;0.10;;;;;;;;;;5006815;28;20068;-84
2023/08/15 12:22:21;;;;;;;0.20;0.10;;;;;;;;;;5026905;28;20040;-84
2023/08/15 12:24:47;;;;;;;0.40;0.40;;;;;;;;;;5024013;28;20525;-81
2023/08/15 12:27:13;;;;;;;0.20;0.20;;;;;;;;;;5006728;28;20352;-86
2023/08/15 12:29:40;;;;;;;0.20;0.10;;;;;;;;;;5021064;28;20041;-82
2023/08/15 12:32:06;;;;;;;0.20;0.10;;;;;;;;;;5003291;28;20037;-85
2023/08/15 12:34:32;;;;;;;0.20;0.10;;;;;;;;;;5040574;28;20044;-82
2023/08/15 12:36:58;;;;;;;0.55;0.30;;;;;;;;;;5017952;28;20083;-80
2023/08/15 12:39:24;;;;;;;0.80;0.73;;;;;;;;;;5015504;28;20044;-83
2023/08/15 12:41:51;;;;;;;0.20;0.13;;;;;;;;;;5019290;28;20073;-85
2023/08/15 12:44:22;;;;;;;0.20;0.17;;;;;;;;;;5016709;28;20071;-84
2023/08/15 12:46:54;;;;;;;0.50;0.40;;;;;;;;;;5011897;28;20367;-84
2023/08/15 12:49:20;;;;;;;0.20;0.10;;;;;;;;;;5019194;28;20048;-85
2023/08/15 12:51:55;;;;;;;0.20;0.10;;;;;;;;;;5018126;28;20036;-85
2023/08/15 12:54:29;;;;;;;0.25;0.25;;;;;;;;;;5021948;28;20052;-88
2023/08/15 12:56:55;;;;;;;0.20;0.10;;;;;;;;;;5015512;28;20540;-86
2023/08/15 12:59:29;;;;;;;0.20;0.10;;;;;;;;;;5005968;28;20371;-84
2023/08/15 13:02:01;;;;;;;0.30;0.30;;;;;;;;;;5007190;28;20037;-84
2023/08/15 13:04:36;;;;;;;0.20;0.10;;;;;;;;;;5003053;28;20480;-86
2023/08/15 13:07:03;;;;;;;0.50;0.30;;;;;;;;;;5005332;28;20068;-83
2023/08/15 13:09:29;;;;;;;0.20;0.13;;;;;;;;;;5020234;28;20044;-86
2023/08/15 13:11:56;;;;;;;0.20;0.10;;;;;;;;;;5019819;28;20037;-83
2023/08/15 13:14:22;;;;;;;0.22;0.13;;;;;;;;;;5019060;28;20052;-85
2023/08/15 13:16:48;;;;;;;0.20;0.10;;;;;;;;;;5003636;28;20569;-85
2023/08/15 13:19:14;;;;;;;0.20;0.15;;;;;;;;;;5000517;28;20532;-84
2023/08/15 13:21:40;;;;;;;0.35;0.30;;;;;;;;;;5020616;28;20473;-83
2023/08/15 13:24:06;;;;;;;0.20;0.20;;;;;;;;;;5017183;28;20540;-86
2023/08/15 13:29:02;;;;;;;0.20;0.10;;;;;;;;;;5030789;28;20079;-86
2023/08/15 13:31:30;;;;;;;0.30;0.30;;;;;;;;;;5022356;28;21656;-86
2023/08/15 13:33:56;;;;;;;0.57;0.40;;;;;;;;;;5020598;28;20531;-84
2023/08/15 13:36:22;;;;;;;0.28;0.17;;;;;;;;;;5021929;28;20069;-85
2023/08/15 13:38:48;;;;;;;0.20;0.10;;;;;;;;;;5000632;28;20041;-83
2023/08/15 13:41:14;;;;;;;0.20;0.10;;;;;;;;;;5019570;28;20091;-83
2023/08/15 13:43:40;;;;;;;0.20;0.20;;;;;;;;;;5023870;28;20745;-84
2023/08/15 13:46:06;;;;;;;0.35;0.28;;;;;;;;;;5014925;28;20083;-81
2023/08/15 13:48:37;;;;;;;0.20;0.10;;;;;;;;;;4998902;28;20236;-84
2023/08/15 13:51:04;;;;;;;0.20;0.10;;;;;;;;;;5002364;28;20041;-82
2023/08/15 13:53:30;;;;;;;0.40;0.28;;;;;;;;;;5021891;28;20047;-84
2023/08/15 13:55:56;;;;;;;0.20;0.10;;;;;;;;;;5000667;28;20079;-82
2023/08/15 13:58:24;;;;;;;0.20;0.10;;;;;;;;;;5014935;28;20064;-82
2023/08/15 14:00:50;;;;;;;0.20;0.20;;;;;;;;;;5016379;28;20570;-84
2023/08/15 14:03:16;;;;;;;0.20;0.10;;;;;;;;;;5021713;28;20095;-84
2023/08/15 14:05:42;;;;;;;0.20;0.10;;;;;;;;;;5008179;28;20040;-84
2023/08/15 14:08:08;;;;;;;0.63;0.63;;;;;;;;;;5021282;28;20067;-82
2023/08/15 14:10:36;;;;;;;0.32;0.30;;;;;;;;;;4997322;28;20052;-84
2023/08/15 14:13:02;;;;;;;0.20;0.20;;;;;;;;;;5003722;28;20044;-85
2023/08/15 14:15:29;;;;;;;0.68;0.25;;;;;;;;;;5022852;28;20037;-82
2023/08/15 14:17:55;;;;;;;0.40;0.30;;;;;;;;;;5021086;28;20037;-86
2023/08/15 14:20:21;;;;;;;0.20;0.10;;;;;;;;;;4997602;28;20081;-85
2023/08/15 14:22:47;;;;;;;0.20;0.10;;;;;;;;;;5023464;28;20078;-84
2023/08/15 14:25:24;;;;;;;;;;;;;;;;;;;;;
2023/08/15 14:27:53;;;;;;;0.20;0.10;;;;;;;;;;5014145;28;20038;-82
2023/08/15 14:30:20;;;;;;;4.85;0.57;;;;;;;;;;5004925;28;20823;-85
2023/08/15 14:32:46;;;;;;;0.28;0.20;;;;;;;;;;5019960;28;20405;-84
2023/08/15 14:35:15;;;;;;;0.20;0.20;;;;;;;;;;5022673;28;20434;-82
2023/08/15 14:37:44;;;;;;;0.20;0.10;;;;;;;;;;5021840;28;20033;-85
2023/08/15 14:40:10;;;;;;;0.30;0.30;;;;;;;;;;4999329;28;20037;-83
2023/08/15 14:42:37;;;;;;;0.30;0.20;;;;;;;;;;5001891;28;20046;-83
2023/08/15 14:45:06;;;;;;;0.20;0.10;;;;;;;;;;5016068;28;20037;-83
2023/08/15 14:47:42;;;;;;;0.50;0.50;;;;;;;;;;5019243;28;20120;-85
2023/08/15 14:50:14;;;;;;;0.20;0.10;;;;;;;;;;5018549;28;20526;-83
2023/08/15 14:52:43;;;;;;;0.52;0.50;;;;;;;;;;5005139;28;20045;-82